• Join FlightAware (Why Join?)
  • Login
  • US Flag 
10:34AM EDT


 

Airport Tracker/Info


-or-


 

Live Flight TrackerFlight Track Log ✈ ASH3788 ✈ 08-Jun-2013 ✈ KORD - KBTV

Flight Track Log - Related Links

Times and Time Zones

All times are in EDT time to prevent confusion due to time zone crossing. See the ASH3788 flight status page for this flight to view local times or setup timezone preferences in your user account.

Time Position Orientation Groundspeed Altitude Reporting Facility
EDT Latitude Longitude Course Direction KTS MPH feet Rate Location/Type
08:50PM 41.9833 -87.8667 86° East 168 193 1,700  Level Chicago TRACON
08:51PM 42.0167 -87.8000 56° Northeast 236 272 4,200 2,580 Climbing Chicago TRACON
08:52PM 42.0500 -87.7000 66° East 286 329 6,900 2,940 Climbing Chicago TRACON
08:53PM 42.1000 -87.6000 56° Northeast 305 351 10,100 2,880 Climbing Chicago TRACON
08:54PM 42.1946 -87.2663 66° East  Level FlightAware Approximate
08:54PM 42.1333 -87.5000 66° East 322 371 12,700  Level Chicago TRACON
08:55PM 42.2491 -87.1025 66° East  Level FlightAware Approximate
08:56PM 42.2702 -86.9281 86° East  Level FlightAware Approximate
08:56PM 42.1706 -87.3783 68° East 325 374 15,100  Level Chicago Center
08:57PM 42.2158 -87.2428 66° East 382 440 16,700 1,740 Climbing Chicago Center
08:58PM 42.2642 -87.1053 65° Northeast 403 464 18,700 1,740 Climbing Chicago Center
08:59PM 42.2828 -86.9458 81° East 426 490 20,300 1,620 Climbing Chicago Center
09:00PM 42.2900 -86.7803 87° East 439 505 22,100 1,800 Climbing Chicago Center
09:01PM 42.2958 -86.5997 87° East 459 528 24,000 1,740 Climbing Chicago Center
09:02PM 42.3033 -86.3986 87° East 470 541 25,700 1,560 Climbing Chicago Center
09:03PM 42.3106 -86.2194 87° East 479 551 27,200 1,260 Climbing Chicago Center
09:04PM 42.3142 -86.0378 88° East 487 560 28,400 1,080 Climbing Chicago Center
09:05PM 42.3119 -85.8522 91° East 496 571 29,500 960 Climbing Chicago Center
09:06PM 42.3089 -85.6633 91° East 505 581 30,400 960 Climbing Chicago Center
09:07PM 42.3075 -85.4708 90° East 514 592 31,500 1,080 Climbing Chicago Center
09:08PM 42.3039 -85.2792 91° East 515 593 32,700 1,140 Climbing Chicago Center
09:09PM 42.3011 -85.0886 91° East 512 589 33,900 1,200 Climbing Chicago Center
09:10PM 42.2958 -84.8633 92° East 505 581 35,200 1,140 Climbing Chicago Center
09:11PM 42.2914 -84.6742 92° East 506 582 36,300 840 Climbing Chicago Center
09:12PM 42.2869 -84.4853 92° East 507 583 37,000 360 Climbing Chicago Center
09:13PM 42.3003 -84.3567 82° East 500 575 37,000  Level Cleveland Center
09:14PM 42.3272 -84.1642 79° East 500 575 37,000  Level Cleveland Center
09:15PM 42.3561 -83.9664 79° East 520 598 37,000  Level Cleveland Center
09:16PM 42.3847 -83.7739 79° East 520 598 37,000  Level Cleveland Center
09:17PM 42.4078 -83.6147 79° East 526 605 37,000  Level Cleveland Center
09:18PM 42.4156 -83.3872 87° East 541 623 37,000  Level Cleveland Center
09:19PM 42.4225 -83.1850 87° East 535 616 37,000  Level Cleveland Center
09:20PM 42.4289 -82.9828 87° East 535 616 37,000  Level Cleveland Center
09:21PM 42.4350 -82.7803 88° East 535 616 37,000  Level Cleveland Center
09:22PM 42.4408 -82.5781 88° East 535 616 37,000  Level Cleveland Center
09:23PM 42.4461 -82.3783 88° East 535 616 37,000  Level Cleveland Center
09:24PM 42.4511 -82.1758 88° East 535 616 37,000  Level Cleveland Center
09:25PM 42.4583 -81.9567 87° East 535 616 37,000  Level Cleveland Center
09:26PM 42.4625 -81.7539 88° East 530 610 37,000  Level Cleveland Center
09:27PM 42.4667 -81.5514 88° East 539 620 37,000  Level Cleveland Center
09:28PM 42.4722 -81.3517 88° East 539 620 37,000  Level Cleveland Center
09:29PM 42.4733 -81.1489 90° East 533 613 37,000  Level Cleveland Center
09:30PM 42.4803 -80.9689 87° East 533 613 37,000  Level Cleveland Center
09:31PM 42.4808 -80.7633 90° East 533 613 37,000  Level Cleveland Center
09:32PM 42.4831 -80.5633 89° East 539 620 37,000  Level Cleveland Center
09:33PM 42.4831 -80.3608 90° East 533 613 37,000  Level Cleveland Center
09:34PM 42.4844 -80.1636 89° East 528 608 37,000  Level Cleveland Center
09:35PM 42.4917 -79.9411 87° East 533 613 37,000  Level Cleveland Center
09:36PM 42.4925 -79.7414 90° East 533 613 37,000  Level Cleveland Center
09:37PM 42.4908 -79.5386 91° East 533 613 37,000  Level Cleveland Center
09:38PM 42.4953 -79.3358 88° East 533 613 37,000  Level Cleveland Center
09:39PM 42.5389 -79.1461 73° East 533 613 37,000  Level Cleveland Center
09:40PM 42.6053 -78.9642 64° Northeast 522 601 37,000  Level Cleveland Center
09:41PM 42.6692 -78.7844 64° Northeast 527 606 37,000  Level Cleveland Center
09:42PM 42.7350 -78.6017 64° Northeast 527 606 37,000  Level Cleveland Center
09:43PM 42.7983 -78.4128 65° Northeast 532 612 37,000  Level Cleveland Center
09:44PM 42.8614 -78.2322 64° Northeast 527 606 37,000  Level Cleveland Center
09:45PM 42.9264 -78.0483 64° Northeast 527 606 37,000  Level Cleveland Center
09:46PM 42.9889 -77.8669 65° Northeast 527 606 37,000  Level Cleveland Center
09:47PM 43.0453 -77.6997 65° Northeast 527 606 37,000  Level Cleveland Center
09:48PM 43.1094 -77.5119 65° Northeast 527 606 37,000  Level Cleveland Center
09:49PM 43.2328 -77.1489 65° Northeast 557 641 37,000  Level Boston Center
09:50PM 43.2947 -76.9594 66° East 546 628 37,000  Level Boston Center
09:51PM 43.3583 -76.7700 65° Northeast 546 628 37,000  Level Boston Center
09:52PM 43.4144 -76.6022 65° Northeast 546 628 37,000  Level Boston Center
09:53PM 43.4756 -76.4119 66° East 541 623 37,000 -180 Level Boston Center
09:54PM 43.5403 -76.2242 65° Northeast 541 623 36,700 -1,200 Descending Boston Center
09:55PM 43.5986 -76.0328 67° East 541 623 34,700 -1,980 Descending Boston Center
09:56PM 43.6586 -75.8439 66° East 536 617 32,800 -2,040 Descending Boston Center
09:57PM 43.7225 -75.6494 65° Northeast 536 617 30,700 -2,100 Descending Boston Center
09:58PM 43.7819 -75.4597 66° East 536 617 28,700 -1,920 Descending Boston Center
09:59PM 43.8386 -75.2756 67° East 529 609 26,900 -1,800 Descending Boston Center
10:00PM 43.8975 -75.0822 67° East 529 609 25,100 -1,020 Descending Boston Center
10:01PM 43.9558 -74.8944 67° East 529 609 24,900 -960 Descending Boston Center
10:02PM 44.0117 -74.7119 67° East 529 609 23,200 -960 Descending Boston Center
10:03PM 44.0653 -74.5319 67° East 516 594 23,000 -420 Descending Boston Center
10:04PM 44.1206 -74.3489 67° East 511 588 22,400 -1,440 Descending Boston Center
10:05PM 44.1711 -74.1739 68° East 505 581 20,200 -2,520 Descending Boston Center
10:06PM 44.2214 -74.0103 67° East 483 556 17,400 -2,940 Descending Boston Center
10:07PM 44.2756 -73.8608 63° Northeast 452 520 14,400 -3,120 Descending Boston Center
10:08PM 44.3436 -73.7261 55° Northeast 405 466 11,200 -2,100 Descending Boston Center
10:09PM 44.3947 -73.6311 53° Northeast 335 386 10,300 -1,860 Descending Boston Center
10:10PM 44.4392 -73.5536 51° Northeast 273 314 7,500 -2,700 Descending Boston Center
10:11PM 44.4775 -73.4786 54° Northeast 252 290 5,000 -2,280 Descending Boston Center
10:12PM 44.5114 -73.4067 57° Northeast 234 269 3,000 -1,440 Descending Boston Center
10:13PM 44.5289 -73.3167 75° East 215 247 2,200 -600 Descending Boston Center
10:14PM 44.5272 -73.2436 92° East 198 228 1,900 -600 Descending Boston Center
10:15PM 44.5025 -73.1997 128° Southeast 160 184 1,100 -840 Descending Boston Center